Terminal Aerodrome Forecast
Issued by NWS

Home | Current Version | Previous Version | Text Only | Print | Product List | Glossary On
Versions: 1 2 3 4 5 6 7 8 9 10 11 12 13
000
FTUS45 KVEF 190500
TAFVGT
TAF
KVGT 190520Z 1906/2006 16008KT P6SM SCT150 BKN200
     FM190900 16008KT P6SM SCT100 BKN150
     FM191900 14006KT P6SM FEW100 SCT150
     FM200300 11006KT P6SM SCT150=

USA.gov is the U.S. government's official web portal to all federal, state and local government web resources and services.